Historique des stations

Station météo de Tauxigny

Altitude de la station : 90 m







Données météorologiques pour le 18/08/2022
Date
Heure
Températures Humidité Point de rosée Vitesse
du vent
Direction Rafales Windchill Pression Pluviométrie
Cumul
Date
Heure
Températures Humidité Point de rosée Vitesse
du vent
Direction Rafales Windchill Pression Pluviométrie
Cumul
18/08/2022 23:5620.2 °C75 %15.6 °C5 km/hNW10 km/h20.21018 hPa0.0 mm
18/08/2022 23:3620.7 °C74 %15.9 °C10 km/hN11 km/h20.71017 hPa0.0 mm
18/08/2022 23:2620.8 °C74 %16.0 °C3 km/hNW10 km/h20.81017 hPa0.0 mm
18/08/2022 23:1621.1 °C73 %16.0 °C3 km/hNW10 km/h21.11017 hPa0.0 mm
18/08/2022 22:5621.4 °C71 %16.0 °C5 km/hONO13 km/h21.41017 hPa0.0 mm
18/08/2022 22:4621.7 °C70 %16.0 °C3 km/hNW16 km/h21.71017 hPa0.0 mm
18/08/2022 22:2621.9 °C67 %15.5 °C6 km/hONO16 km/h21.91017 hPa0.0 mm
18/08/2022 22:0622.3 °C65 %15.4 °C8 km/hONO15 km/h22.31017 hPa0.0 mm
18/08/2022 21:5622.4 °C64 %15.2 °C10 km/hNNO13 km/h22.41017 hPa0.0 mm
18/08/2022 21:3622.8 °C62 %15.2 °C5 km/hNW13 km/h22.81016 hPa0.0 mm
18/08/2022 21:2623.1 °C60 %14.9 °C8 km/hOSO10 km/h23.11016 hPa0.0 mm
18/08/2022 21:0623.8 °C57 %14.8 °C6 km/hONO11 km/h23.81016 hPa0.0 mm
18/08/2022 20:5624.2 °C56 %14.8 °C6 km/hO15 km/h24.21016 hPa0.0 mm
18/08/2022 20:3624.8 °C53 %14.5 °C6 km/hONO15 km/h24.81016 hPa0.0 mm
18/08/2022 20:2625.1 °C53 %14.9 °C10 km/hONO16 km/h25.11016 hPa0.0 mm
18/08/2022 20:0625.8 °C51 %14.9 °C6 km/hONO15 km/h25.81016 hPa0.0 mm
18/08/2022 19:5626.3 °C50 %15.1 °C15 km/hO16 km/h26.31015 hPa0.0 mm
18/08/2022 19:3626.9 °C50 %15.6 °C8 km/hNW16 km/h26.91015 hPa0.0 mm
18/08/2022 19:2627.2 °C49 %15.5 °C6 km/hONO16 km/h27.21015 hPa0.0 mm
18/08/2022 19:1627.4 °C48 %15.4 °C10 km/hONO18 km/h27.41016 hPa0.0 mm
18/08/2022 18:5627.4 °C48 %15.4 °C3 km/hNNO19 km/h27.41016 hPa0.0 mm
18/08/2022 18:4627.4 °C49 %15.7 °C10 km/hNW19 km/h27.41016 hPa0.0 mm
18/08/2022 18:2627.5 °C49 %15.8 °C8 km/hN19 km/h27.51016 hPa0.0 mm
18/08/2022 18:1627.8 °C47 %15.5 °C10 km/hN18 km/h27.81016 hPa0.0 mm
18/08/2022 17:5627.9 °C44 %14.5 °C11 km/hOSO21 km/h27.91016 hPa0.0 mm
18/08/2022 17:4628.0 °C45 %15.0 °C8 km/hO16 km/h28.01015 hPa0.0 mm
18/08/2022 17:2627.8 °C46 %15.1 °C10 km/hONO16 km/h27.81016 hPa0.0 mm
18/08/2022 17:0627.8 °C47 %15.4 °C8 km/hOSO15 km/h27.81016 hPa0.0 mm
18/08/2022 16:5627.7 °C47 %15.4 °C6 km/hO16 km/h27.71016 hPa0.0 mm
18/08/2022 16:4627.9 °C46 %15.2 °C3 km/hONO15 km/h27.91016 hPa0.0 mm
18/08/2022 16:2627.7 °C48 %15.7 °C5 km/hO18 km/h27.71016 hPa0.0 mm
18/08/2022 16:0627.3 °C50 %15.9 °C8 km/hNW18 km/h27.31016 hPa0.0 mm
18/08/2022 15:5627.4 °C51 %16.4 °C10 km/hO15 km/h27.41016 hPa0.0 mm
18/08/2022 15:4627.4 °C51 %16.4 °C11 km/hONO13 km/h27.41016 hPa0.0 mm
18/08/2022 15:2626.4 °C53 %16.1 °C8 km/hONO13 km/h26.41016 hPa0.0 mm
18/08/2022 15:1625.7 °C53 %15.4 °C6 km/hSSE10 km/h25.71016 hPa0.0 mm
18/08/2022 15:0625.2 °C55 %15.5 °C8 km/hO18 km/h25.21016 hPa0.0 mm
18/08/2022 15:0625.2 °C55 %15.5 °C5 km/hO18 km/h25.21016 hPa0.0 mm
18/08/2022 14:4624.7 °C58 %15.9 °C6 km/hSO13 km/h24.71016 hPa0.0 mm
18/08/2022 14:4624.7 °C58 %15.9 °C-SO13 km/h24.71016 hPa0.0 mm
18/08/2022 14:3625.3 °C57 %16.1 °C5 km/hONO11 km/h25.31016 hPa0.0 mm
18/08/2022 14:3625.3 °C57 %16.1 °C6 km/hONO11 km/h25.31016 hPa0.0 mm
18/08/2022 14:2625.2 °C56 %15.8 °C3 km/hNNO19 km/h25.21016 hPa0.0 mm
18/08/2022 14:1625.4 °C56 %16.0 °C10 km/hO18 km/h25.41016 hPa0.0 mm
18/08/2022 14:0625.1 °C58 %16.3 °C8 km/hNO18 km/h25.11016 hPa0.0 mm
18/08/2022 14:0625.1 °C58 %16.3 °C8 km/hNW18 km/h25.11016 hPa0.0 mm
18/08/2022 13:5625.3 °C57 %16.2 °C6 km/hNW16 km/h25.31016 hPa0.0 mm
18/08/2022 13:4625.2 °C59 %16.6 °C5 km/hN13 km/h25.21016 hPa0.0 mm
18/08/2022 13:3624.8 °C60 %16.5 °C8 km/hONO19 km/h24.81016 hPa0.0 mm
18/08/2022 13:3624.8 °C60 %16.5 °C8 km/hONO19 km/h24.81016 hPa0.0 mm
18/08/2022 13:2624.7 °C64 %17.4 °C11 km/hO23 km/h24.71016 hPa0.0 mm
18/08/2022 13:0624.4 °C64 %17.2 °C6 km/hONO13 km/h24.41016 hPa0.0 mm
18/08/2022 13:0624.4 °C64 %17.2 °C5 km/hONO13 km/h24.41016 hPa0.0 mm
18/08/2022 12:5624.1 °C65 %17.1 °C6 km/hO16 km/h24.11016 hPa0.0 mm
18/08/2022 12:4623.8 °C67 %17.3 °C10 km/h19 km/h23.81016 hPa0.0 mm
18/08/2022 12:3623.7 °C69 %17.6 °C10 km/hONO16 km/h23.71016 hPa0.0 mm
18/08/2022 12:3623.7 °C69 %17.6 °C15 km/hONO16 km/h23.71016 hPa0.0 mm
18/08/2022 12:2623.4 °C68 %17.1 °C10 km/hSO21 km/h23.41016 hPa0.0 mm
18/08/2022 12:1623.7 °C68 %17.4 °C5 km/hNW11 km/h23.71016 hPa0.0 mm
18/08/2022 12:0623.7 °C68 %17.5 °C8 km/hO15 km/h23.71016 hPa0.0 mm
18/08/2022 11:5623.8 °C68 %17.5 °C10 km/hO13 km/h23.81016 hPa0.0 mm
18/08/2022 11:4623.3 °C70 %17.5 °C8 km/hO16 km/h23.31016 hPa0.0 mm
18/08/2022 11:3623.1 °C68 %16.9 °C6 km/hO13 km/h23.11016 hPa0.0 mm
18/08/2022 11:3623.1 °C68 %16.9 °C6 km/hO13 km/h23.11016 hPa0.0 mm
18/08/2022 11:2622.6 °C70 %16.9 °C3 km/hONO15 km/h22.61016 hPa0.0 mm
18/08/2022 11:1622.5 °C71 %17.0 °C6 km/hNNO11 km/h22.51016 hPa0.0 mm
18/08/2022 11:0622.7 °C70 %16.9 °C5 km/hONO13 km/h22.71016 hPa0.0 mm
18/08/2022 11:0622.7 °C70 %16.9 °C10 km/hONO13 km/h22.71016 hPa0.0 mm
18/08/2022 10:5622.5 °C74 %17.6 °C6 km/hO10 km/h22.51016 hPa0.0 mm
18/08/2022 10:4621.8 °C76 %17.4 °C5 km/hOSO11 km/h21.81016 hPa0.0 mm
18/08/2022 10:3621.7 °C77 %17.5 °C5 km/hOSO11 km/h21.71016 hPa0.0 mm
18/08/2022 10:3621.7 °C77 %17.5 °C6 km/hOSO11 km/h21.71016 hPa0.0 mm
18/08/2022 10:2621.1 °C78 %17.1 °C2 km/hOSO11 km/h21.11016 hPa0.0 mm
18/08/2022 10:1620.7 °C79 %16.9 °C5 km/hO8 km/h20.71015 hPa0.0 mm
18/08/2022 10:0620.7 °C80 %17.1 °C3 km/hONO6 km/h20.71015 hPa0.0 mm
18/08/2022 10:0620.7 °C80 %17.1 °C2 km/hONO6 km/h20.71015 hPa0.0 mm
18/08/2022 09:5620.2 °C82 %17.0 °C2 km/hNW6 km/h20.21015 hPa0.0 mm
18/08/2022 09:4619.7 °C84 %16.9 °C3 km/hNO6 km/h19.71015 hPa0.0 mm
18/08/2022 09:3619.4 °C85 %16.8 °C2 km/hNNE5 km/h19.41015 hPa0.0 mm
18/08/2022 09:3619.4 °C85 %16.8 °C3 km/hNNE5 km/h19.41015 hPa0.0 mm
18/08/2022 09:2618.5 °C88 %16.5 °C-OSO6 km/h18.51015 hPa0.0 mm
18/08/2022 09:1617.8 °C90 %16.1 °C3 km/hNO6 km/h17.81015 hPa0.0 mm
18/08/2022 09:0617.3 °C91 %15.8 °C3 km/hNO6 km/h17.31015 hPa0.0 mm
18/08/2022 09:0617.3 °C91 %15.8 °C5 km/hNW6 km/h17.31015 hPa0.0 mm
18/08/2022 08:5616.7 °C93 %15.6 °C2 km/hO10 km/h16.71015 hPa0.0 mm
18/08/2022 08:3615.9 °C95 %15.1 °C5 km/hONO8 km/h15.91015 hPa0.0 mm
18/08/2022 08:2615.4 °C97 %15.0 °C5 km/hONO10 km/h15.41015 hPa0.0 mm
18/08/2022 08:1615.1 °C97 %14.6 °C3 km/hNW11 km/h15.11015 hPa0.0 mm
18/08/2022 08:0614.7 °C97 %14.3 °C5 km/hONO11 km/h14.71015 hPa0.0 mm
18/08/2022 07:5614.3 °C98 %14.0 °C3 km/hONO10 km/h14.31015 hPa0.0 mm
18/08/2022 07:4613.6 °C98 %13.2 °C6 km/hOSO8 km/h13.61015 hPa0.0 mm
18/08/2022 07:2612.6 °C97 %12.1 °C3 km/hO5 km/h12.61015 hPa0.0 mm
18/08/2022 07:1612.4 °C97 %12.0 °C3 km/hO6 km/h12.41015 hPa0.0 mm
18/08/2022 06:5612.2 °C96 %11.6 °C2 km/hO8 km/h12.21015 hPa0.0 mm
18/08/2022 06:3612.1 °C97 %11.6 °C6 km/hO8 km/h12.11015 hPa0.0 mm
18/08/2022 06:2611.8 °C96 %11.2 °C5 km/hO6 km/h11.81015 hPa0.0 mm
18/08/2022 06:0611.8 °C96 %11.2 °C---11.81014 hPa0.0 mm
18/08/2022 05:5611.8 °C96 %11.2 °C---11.81014 hPa0.0 mm
18/08/2022 05:3612.0 °C95 %11.2 °C-SSO3 km/h12.01014 hPa0.0 mm
18/08/2022 05:2612.1 °C95 %11.3 °C2 km/hSSO3 km/h12.11014 hPa0.0 mm
18/08/2022 05:1612.4 °C95 %11.7 °C2 km/hSO5 km/h12.41014 hPa0.0 mm
18/08/2022 05:0612.5 °C95 %11.7 °C3 km/hSO3 km/h12.51014 hPa0.0 mm
18/08/2022 04:5612.6 °C95 %11.8 °C2 km/hS2 km/h12.61014 hPa0.0 mm
18/08/2022 04:4612.7 °C95 %11.9 °C-S2 km/h12.71014 hPa0.0 mm
18/08/2022 04:3612.8 °C94 %11.8 °C2 km/hS3 km/h12.81014 hPa0.0 mm
18/08/2022 04:2612.9 °C94 %11.9 °C2 km/hS3 km/h12.91014 hPa0.0 mm
18/08/2022 04:1613.1 °C94 %12.1 °C-OSO3 km/h13.11014 hPa0.0 mm
18/08/2022 03:5613.3 °C93 %12.2 °C-OSO3 km/h13.31014 hPa0.0 mm
18/08/2022 03:4613.4 °C93 %12.3 °C---13.41014 hPa0.0 mm
18/08/2022 03:2613.7 °C92 %12.4 °C---13.71014 hPa0.0 mm
18/08/2022 03:0614.3 °C91 %12.8 °C2 km/hOSO3 km/h14.31015 hPa0.0 mm
18/08/2022 02:5614.4 °C90 %12.8 °C-OSO2 km/h14.41015 hPa0.0 mm
18/08/2022 02:3615.1 °C88 %13.1 °C-OSO3 km/h15.11014 hPa0.0 mm
18/08/2022 02:2615.3 °C88 %13.4 °C2 km/hOSO8 km/h15.31014 hPa0.0 mm
18/08/2022 02:1615.5 °C87 %13.3 °C3 km/hOSO8 km/h15.51014 hPa0.0 mm
18/08/2022 01:5616.2 °C85 %13.7 °C-ONO5 km/h16.21014 hPa0.0 mm
18/08/2022 01:4616.7 °C83 %13.8 °C5 km/hONO10 km/h16.71014 hPa0.0 mm
18/08/2022 01:3616.6 °C84 %13.9 °C6 km/hO10 km/h16.61014 hPa0.0 mm
18/08/2022 01:2616.3 °C85 %13.8 °C5 km/hONO10 km/h16.31014 hPa0.0 mm
18/08/2022 01:1615.8 °C87 %13.6 °C10 km/hONO10 km/h15.81014 hPa0.0 mm
18/08/2022 00:5615.7 °C88 %13.7 °C3 km/hONO6 km/h15.71014 hPa0.0 mm
18/08/2022 00:3615.8 °C88 %13.8 °C3 km/hONO11 km/h15.81014 hPa0.0 mm
18/08/2022 00:2615.9 °C87 %13.8 °C2 km/hNW2 km/h15.91014 hPa0.0 mm
18/08/2022 00:0616.3 °C86 %14.0 °C2 km/h--16.31014 hPa0.0 mm
18/08/2022 00:0616.3 °C86 %14.0 °C---16.31014 hPa0.0 mm


Minima :

Température : 11.8 °C
Humidité : 44 %
Point de rosée : 11.2 °C
Vent moyen : 2 km/h
Windchill : 11.8
Pression atm. : 1014 hPa
Maxima :

Température : 28.0 °C
Humidité : 98 %
Point de rosée : 17.6 °C
Vent moyen : 15 km/h
Windchill : 28.0
Pression atm. : 1018 hPa
Rafales max : 23 km/h
Cumul de pluie sur 24H : 0 mm

Tauxigny est une commune du département Indre-et-Loire (37).
La station météorologique du réseau de l'association la plus proche de Tauxigny est celle de Luçay-le-Libre



Icône Facebook Association Météo Centre Icône Twitter Association Météo Centre Icône Chaîne Youtube Association Météo Centre Icône contact Association Météo Centre Icône Insta Association Météo Centre